Airfield :
LOGIN :

Register | Disclaimer

   EN    FR    IT 

 










Legend :    VFR   Marginal VFR   IFR   Intensive IFR   Very Intensive IFR
Visi :
Ceiling :
>= 8 km
>= 3000ft
5 to 8 km
1000 to 3000 ft
1500m to 5 km
500 to 1000 ft
800 to 1500m
200 to 500 ft
< 800m
< 200 ft
Symbols :   Thunderstorms  Fog  Heavy snow  Heavy precipitations  Wind > 20 kt
SIGMETs :     Misc.  Thunderstorms  Icing  Turbulence  Mountain Waves  Volcanic Ashes






- Airport Elevation : 157 ft
- IATA code : SXF


EDDB - Berlin Schönefeld

CURRENT METAR :
  • 281320Z 30004KT 260V350 9999 FEW018 17/12 Q1022 NOSIG

EXPIRED METARs :
  • 281250Z 28005KT 9999 SCT016 16/12 Q1023 NOSIG
  • 281220Z 28006KT 9999 -RA BKN014 16/13 Q1023 BECMG BKN020
  • 281150Z 28006KT 260V320 9999 BKN012 BKN047 16/13 Q1023 BECMG BKN020
  • 281120Z 29005KT 260V330 9999 -RA BKN012 BKN047 15/14 Q1023 BECMG BKN020
  • 281050Z 30005KT 270V330 8000 -RA FEW009 BKN018 15/13 Q1023 NOSIG

TAF TAF EDDB
Valid from the 28 at 12:00 until the 29 at 12:00 UTC


281100Z 2812/2912 30008KT 9999 SCT030
BECMG 2814/2817 03003KT
BECMG 2822/2902 4000 BR
TEMPO 2901/2907 0500 FG BKN002
BECMG 2907/2910 13008KT 9999
TEMPO 2910/2912 4000 SHRA BKN020CB



MET'MAP, your aeronautical weather chart ! - Copyright ORBIFLY December 2007 - Disclaimer

ORBIFLY MET'MAP TEAM :

Programming & Development : Alexandra Zaïnal
Concept & original design : Baudouin d'Aumeries
Assistance for programming : Marc-Olivier Méhu
Technical & hardware support : Manuel Goepfert

Contact : metmap@orbifly.com




SOURCES & CREDITS :

   NOAA